sensor_id;sensor_type;location;lat;lon;timestamp;temperature;humidity
516;DHT22;244;48.508;9.052;2022-12-18T00:02:19;-6.50;12.30
516;DHT22;244;48.508;9.052;2022-12-18T00:04:50;-6.50;12.40
516;DHT22;244;48.508;9.052;2022-12-18T00:07:17;-6.50;12.50
516;DHT22;244;48.508;9.052;2022-12-18T00:09:47;-6.50;12.50
516;DHT22;244;48.508;9.052;2022-12-18T00:12:14;-6.60;12.40
516;DHT22;244;48.508;9.052;2022-12-18T00:14:40;-6.60;12.50
516;DHT22;244;48.508;9.052;2022-12-18T00:17:07;-6.60;12.50
516;DHT22;244;48.508;9.052;2022-12-18T00:19:34;-6.70;12.40
516;DHT22;244;48.508;9.052;2022-12-18T00:22:02;-6.70;12.40
516;DHT22;244;48.508;9.052;2022-12-18T00:24:30;-6.70;12.40
516;DHT22;244;48.508;9.052;2022-12-18T00:26:57;-6.80;12.40
516;DHT22;244;48.508;9.052;2022-12-18T00:29:24;-6.80;12.40
516;DHT22;244;48.508;9.052;2022-12-18T00:31:51;-6.80;12.40
516;DHT22;244;48.508;9.052;2022-12-18T00:34:18;-6.90;12.50
516;DHT22;244;48.508;9.052;2022-12-18T00:36:47;-6.90;12.50
516;DHT22;244;48.508;9.052;2022-12-18T00:39:15;-7.00;12.30
516;DHT22;244;48.508;9.052;2022-12-18T00:41:42;-7.00;12.40
516;DHT22;244;48.508;9.052;2022-12-18T00:44:27;-7.10;12.40
516;DHT22;244;48.508;9.052;2022-12-18T00:46:54;-7.10;12.50
516;DHT22;244;48.508;9.052;2022-12-18T00:49:21;-7.10;12.50
516;DHT22;244;48.508;9.052;2022-12-18T00:51:48;-7.10;12.50
516;DHT22;244;48.508;9.052;2022-12-18T00:54:17;-7.10;12.40
516;DHT22;244;48.508;9.052;2022-12-18T00:56:44;-7.10;12.40
516;DHT22;244;48.508;9.052;2022-12-18T00:59:11;-7.10;12.50
516;DHT22;244;48.508;9.052;2022-12-18T01:01:38;-7.10;12.40
516;DHT22;244;48.508;9.052;2022-12-18T01:04:05;-7.10;12.60
516;DHT22;244;48.508;9.052;2022-12-18T01:06:32;-7.10;12.50
516;DHT22;244;48.508;9.052;2022-12-18T01:08:59;-7.10;12.50
516;DHT22;244;48.508;9.052;2022-12-18T01:11:28;-7.10;12.50
516;DHT22;244;48.508;9.052;2022-12-18T01:13:55;-7.20;12.30
516;DHT22;244;48.508;9.052;2022-12-18T01:16:22;-7.20;12.20
516;DHT22;244;48.508;9.052;2022-12-18T01:18:51;-7.30;12.10
516;DHT22;244;48.508;9.052;2022-12-18T01:21:19;-7.30;12.30
516;DHT22;244;48.508;9.052;2022-12-18T01:23:46;-7.30;12.30
516;DHT22;244;48.508;9.052;2022-12-18T01:26:14;-7.40;12.30
516;DHT22;244;48.508;9.052;2022-12-18T01:28:43;-7.40;12.40
516;DHT22;244;48.508;9.052;2022-12-18T01:31:17;-7.40;12.50
516;DHT22;244;48.508;9.052;2022-12-18T01:36:37;-7.50;12.50
516;DHT22;244;48.508;9.052;2022-12-18T01:39:07;-7.50;12.60
516;DHT22;244;48.508;9.052;2022-12-18T01:41:35;-7.50;12.60
516;DHT22;244;48.508;9.052;2022-12-18T01:44:55;-7.50;12.50
516;DHT22;244;48.508;9.052;2022-12-18T01:47:24;-7.50;12.50
516;DHT22;244;48.508;9.052;2022-12-18T01:49:52;-7.50;12.50
516;DHT22;244;48.508;9.052;2022-12-18T01:52:23;-7.40;12.40
516;DHT22;244;48.508;9.052;2022-12-18T01:54:52;-7.40;12.40
516;DHT22;244;48.508;9.052;2022-12-18T01:57:19;-7.40;12.40
516;DHT22;244;48.508;9.052;2022-12-18T01:59:50;-7.40;12.50
516;DHT22;244;48.508;9.052;2022-12-18T02:02:20;-7.30;12.60
516;DHT22;244;48.508;9.052;2022-12-18T02:04:47;-7.30;12.40
516;DHT22;244;48.508;9.052;2022-12-18T02:07:23;-7.30;12.30
516;DHT22;244;48.508;9.052;2022-12-18T02:10:01;-7.30;12.40
516;DHT22;244;48.508;9.052;2022-12-18T02:12:35;-7.30;12.30
516;DHT22;244;48.508;9.052;2022-12-18T02:15:11;-7.30;12.20
516;DHT22;244;48.508;9.052;2022-12-18T02:17:43;-7.30;12.00
516;DHT22;244;48.508;9.052;2022-12-18T02:20:18;-7.30;12.20
516;DHT22;244;48.508;9.052;2022-12-18T02:22:58;-7.30;12.20
516;DHT22;244;48.508;9.052;2022-12-18T02:25:51;-7.30;12.10
516;DHT22;244;48.508;9.052;2022-12-18T02:28:21;-7.30;12.10
516;DHT22;244;48.508;9.052;2022-12-18T02:30:51;-7.30;12.00
516;DHT22;244;48.508;9.052;2022-12-18T02:33:21;-7.30;11.90
516;DHT22;244;48.508;9.052;2022-12-18T02:35:49;-7.30;12.00
516;DHT22;244;48.508;9.052;2022-12-18T02:38:18;-7.30;12.00
516;DHT22;244;48.508;9.052;2022-12-18T02:40:45;-7.30;12.60
516;DHT22;244;48.508;9.052;2022-12-18T02:43:15;-7.30;12.60
516;DHT22;244;48.508;9.052;2022-12-18T02:45:50;-7.30;12.00
516;DHT22;244;48.508;9.052;2022-12-18T02:48:23;-7.30;11.90
516;DHT22;244;48.508;9.052;2022-12-18T02:50:55;-7.30;11.80
516;DHT22;244;48.508;9.052;2022-12-18T02:53:30;-7.30;11.80
516;DHT22;244;48.508;9.052;2022-12-18T02:56:05;-7.30;11.70
516;DHT22;244;48.508;9.052;2022-12-18T02:58:43;-7.30;11.80
516;DHT22;244;48.508;9.052;2022-12-18T03:01:17;-7.30;11.80
516;DHT22;244;48.508;9.052;2022-12-18T03:03:48;-7.30;11.80
516;DHT22;244;48.508;9.052;2022-12-18T03:06:23;-7.30;11.80
516;DHT22;244;48.508;9.052;2022-12-18T03:08:56;-7.40;11.60
516;DHT22;244;48.508;9.052;2022-12-18T03:11:24;-7.40;11.60
516;DHT22;244;48.508;9.052;2022-12-18T03:14:08;-7.40;11.60
516;DHT22;244;48.508;9.052;2022-12-18T03:16:36;-7.50;11.80
516;DHT22;244;48.508;9.052;2022-12-18T03:19:07;-7.50;11.80
516;DHT22;244;48.508;9.052;2022-12-18T03:21:38;-7.50;11.90
516;DHT22;244;48.508;9.052;2022-12-18T03:24:07;-7.50;12.50
516;DHT22;244;48.508;9.052;2022-12-18T03:26:39;-7.60;12.50
516;DHT22;244;48.508;9.052;2022-12-18T03:29:12;-7.60;11.80
516;DHT22;244;48.508;9.052;2022-12-18T03:31:42;-7.60;11.90
516;DHT22;244;48.508;9.052;2022-12-18T03:34:15;-7.60;11.80
516;DHT22;244;48.508;9.052;2022-12-18T03:36:44;-7.70;11.70
516;DHT22;244;48.508;9.052;2022-12-18T03:39:11;-7.70;11.90
516;DHT22;244;48.508;9.052;2022-12-18T03:41:42;-7.60;12.00
516;DHT22;244;48.508;9.052;2022-12-18T03:44:15;-7.60;11.90
516;DHT22;244;48.508;9.052;2022-12-18T03:46:49;-7.60;11.70
516;DHT22;244;48.508;9.052;2022-12-18T03:49:28;-7.70;11.50
516;DHT22;244;48.508;9.052;2022-12-18T03:52:03;-7.70;11.60
516;DHT22;244;48.508;9.052;2022-12-18T03:54:31;-7.70;11.70
516;DHT22;244;48.508;9.052;2022-12-18T03:57:04;-7.70;11.80
516;DHT22;244;48.508;9.052;2022-12-18T03:59:35;-7.70;11.90
516;DHT22;244;48.508;9.052;2022-12-18T04:02:04;-7.70;11.90
516;DHT22;244;48.508;9.052;2022-12-18T04:04:33;-7.70;12.00
516;DHT22;244;48.508;9.052;2022-12-18T04:07:01;-7.70;12.00
516;DHT22;244;48.508;9.052;2022-12-18T04:09:30;-7.60;12.10
516;DHT22;244;48.508;9.052;2022-12-18T04:11:58;-7.60;12.80
516;DHT22;244;48.508;9.052;2022-12-18T04:14:25;-7.60;12.00
516;DHT22;244;48.508;9.052;2022-12-18T04:16:53;-7.50;12.10
516;DHT22;244;48.508;9.052;2022-12-18T04:19:20;-7.50;12.10
516;DHT22;244;48.508;9.052;2022-12-18T04:21:47;-7.50;12.30
516;DHT22;244;48.508;9.052;2022-12-18T04:24:14;-7.40;12.30
516;DHT22;244;48.508;9.052;2022-12-18T04:26:41;-7.40;12.10
516;DHT22;244;48.508;9.052;2022-12-18T04:29:08;-7.40;12.00
516;DHT22;244;48.508;9.052;2022-12-18T04:31:35;-7.40;11.80
516;DHT22;244;48.508;9.052;2022-12-18T04:34:03;-7.40;11.70
516;DHT22;244;48.508;9.052;2022-12-18T04:36:30;-7.40;11.80
516;DHT22;244;48.508;9.052;2022-12-18T04:38:57;-7.40;11.70
516;DHT22;244;48.508;9.052;2022-12-18T04:41:24;-7.40;11.80
516;DHT22;244;48.508;9.052;2022-12-18T04:43:51;-7.40;11.70
516;DHT22;244;48.508;9.052;2022-12-18T04:46:20;-7.30;11.80
516;DHT22;244;48.508;9.052;2022-12-18T04:48:47;-7.30;11.80
516;DHT22;244;48.508;9.052;2022-12-18T04:51:15;-7.30;11.80
516;DHT22;244;48.508;9.052;2022-12-18T04:53:42;-7.30;11.90
516;DHT22;244;48.508;9.052;2022-12-18T04:56:11;-7.30;11.80
516;DHT22;244;48.508;9.052;2022-12-18T04:58:39;-7.30;11.80
516;DHT22;244;48.508;9.052;2022-12-18T05:01:07;-7.30;11.60
516;DHT22;244;48.508;9.052;2022-12-18T05:03:36;-7.30;11.60
516;DHT22;244;48.508;9.052;2022-12-18T05:06:03;-7.40;11.60
516;DHT22;244;48.508;9.052;2022-12-18T05:08:32;-7.40;11.40
516;DHT22;244;48.508;9.052;2022-12-18T05:11:00;-7.40;11.40
516;DHT22;244;48.508;9.052;2022-12-18T05:13:27;-7.40;11.50
516;DHT22;244;48.508;9.052;2022-12-18T05:15:54;-7.40;11.50
516;DHT22;244;48.508;9.052;2022-12-18T05:18:22;-7.40;11.40
516;DHT22;244;48.508;9.052;2022-12-18T05:20:51;-7.40;11.40
516;DHT22;244;48.508;9.052;2022-12-18T05:23:19;-7.40;11.30
516;DHT22;244;48.508;9.052;2022-12-18T05:25:51;-7.40;11.20
516;DHT22;244;48.508;9.052;2022-12-18T05:28:18;-7.40;11.10
516;DHT22;244;48.508;9.052;2022-12-18T05:30:48;-7.50;10.90
516;DHT22;244;48.508;9.052;2022-12-18T05:33:15;-7.50;11.00
516;DHT22;244;48.508;9.052;2022-12-18T05:35:42;-7.50;11.10
516;DHT22;244;48.508;9.052;2022-12-18T05:38:09;-7.60;11.10
516;DHT22;244;48.508;9.052;2022-12-18T05:40:36;-7.60;11.00
516;DHT22;244;48.508;9.052;2022-12-18T05:43:04;-7.70;10.80
516;DHT22;244;48.508;9.052;2022-12-18T05:45:31;-7.70;10.80
516;DHT22;244;48.508;9.052;2022-12-18T05:47:58;-7.70;10.80
516;DHT22;244;48.508;9.052;2022-12-18T05:50:25;-7.70;10.70
516;DHT22;244;48.508;9.052;2022-12-18T05:52:52;-7.70;10.60
516;DHT22;244;48.508;9.052;2022-12-18T05:55:21;-7.70;10.70
516;DHT22;244;48.508;9.052;2022-12-18T05:57:48;-7.70;10.80
516;DHT22;244;48.508;9.052;2022-12-18T06:00:17;-7.70;10.90
516;DHT22;244;48.508;9.052;2022-12-18T06:02:46;-7.70;10.70
516;DHT22;244;48.508;9.052;2022-12-18T06:05:13;-7.70;10.70
516;DHT22;244;48.508;9.052;2022-12-18T06:07:40;-7.70;10.70
516;DHT22;244;48.508;9.052;2022-12-18T06:10:08;-7.60;10.80
516;DHT22;244;48.508;9.052;2022-12-18T06:12:35;-7.60;10.80
516;DHT22;244;48.508;9.052;2022-12-18T06:15:02;-7.70;10.60
516;DHT22;244;48.508;9.052;2022-12-18T06:17:32;-7.70;10.70
516;DHT22;244;48.508;9.052;2022-12-18T06:19:59;-7.70;10.50
516;DHT22;244;48.508;9.052;2022-12-18T06:22:26;-7.80;10.40
516;DHT22;244;48.508;9.052;2022-12-18T06:24:53;-7.80;10.20
516;DHT22;244;48.508;9.052;2022-12-18T06:27:20;-7.80;10.00
516;DHT22;244;48.508;9.052;2022-12-18T06:29:47;-7.90;9.90
516;DHT22;244;48.508;9.052;2022-12-18T06:32:14;-8.00;9.70
516;DHT22;244;48.508;9.052;2022-12-18T06:34:43;-7.90;9.90
516;DHT22;244;48.508;9.052;2022-12-18T06:37:10;-8.00;10.00
516;DHT22;244;48.508;9.052;2022-12-18T06:39:37;-8.00;10.30
516;DHT22;244;48.508;9.052;2022-12-18T06:42:04;-8.00;10.30
516;DHT22;244;48.508;9.052;2022-12-18T06:44:31;-8.00;10.40
516;DHT22;244;48.508;9.052;2022-12-18T06:46:58;-8.00;10.50
516;DHT22;244;48.508;9.052;2022-12-18T06:49:25;-8.00;10.60
516;DHT22;244;48.508;9.052;2022-12-18T06:51:53;-8.00;10.70
516;DHT22;244;48.508;9.052;2022-12-18T06:54:20;-8.00;10.80
516;DHT22;244;48.508;9.052;2022-12-18T06:56:47;-8.00;10.70
516;DHT22;244;48.508;9.052;2022-12-18T06:59:14;-8.00;10.70
516;DHT22;244;48.508;9.052;2022-12-18T07:01:41;-8.00;10.80
516;DHT22;244;48.508;9.052;2022-12-18T07:04:08;-8.00;10.80
516;DHT22;244;48.508;9.052;2022-12-18T07:06:35;-8.00;10.80
516;DHT22;244;48.508;9.052;2022-12-18T07:09:04;-8.00;10.80
516;DHT22;244;48.508;9.052;2022-12-18T07:11:32;-8.00;10.80
516;DHT22;244;48.508;9.052;2022-12-18T07:14:00;-8.00;10.90
516;DHT22;244;48.508;9.052;2022-12-18T07:16:29;-8.00;10.80
516;DHT22;244;48.508;9.052;2022-12-18T07:18:59;-8.00;10.90
516;DHT22;244;48.508;9.052;2022-12-18T07:21:26;-8.00;10.80
516;DHT22;244;48.508;9.052;2022-12-18T07:23:53;-8.00;10.90
516;DHT22;244;48.508;9.052;2022-12-18T07:26:22;-8.00;10.90
516;DHT22;244;48.508;9.052;2022-12-18T07:28:49;-8.00;11.00
516;DHT22;244;48.508;9.052;2022-12-18T07:31:18;-8.00;10.90
516;DHT22;244;48.508;9.052;2022-12-18T07:33:46;-8.00;10.90
516;DHT22;244;48.508;9.052;2022-12-18T07:36:13;-7.90;10.90
516;DHT22;244;48.508;9.052;2022-12-18T07:38:43;-7.90;10.80
516;DHT22;244;48.508;9.052;2022-12-18T07:41:12;-7.90;10.70
516;DHT22;244;48.508;9.052;2022-12-18T07:43:41;-7.80;10.70
516;DHT22;244;48.508;9.052;2022-12-18T07:46:09;-7.90;10.60
516;DHT22;244;48.508;9.052;2022-12-18T07:48:36;-7.80;10.80
516;DHT22;244;48.508;9.052;2022-12-18T07:51:05;-7.80;10.70
516;DHT22;244;48.508;9.052;2022-12-18T07:53:35;-7.80;10.60
516;DHT22;244;48.508;9.052;2022-12-18T07:56:04;-7.80;10.70
516;DHT22;244;48.508;9.052;2022-12-18T07:58:32;-7.80;10.70
516;DHT22;244;48.508;9.052;2022-12-18T08:01:09;-7.80;10.70
516;DHT22;244;48.508;9.052;2022-12-18T08:03:38;-7.80;10.60
516;DHT22;244;48.508;9.052;2022-12-18T08:06:08;-7.80;10.60
516;DHT22;244;48.508;9.052;2022-12-18T08:08:35;-7.80;10.50
516;DHT22;244;48.508;9.052;2022-12-18T08:11:03;-7.80;10.40
516;DHT22;244;48.508;9.052;2022-12-18T08:13:33;-7.80;10.40
516;DHT22;244;48.508;9.052;2022-12-18T08:16:01;-7.90;10.50
516;DHT22;244;48.508;9.052;2022-12-18T08:18:32;-7.90;10.50
516;DHT22;244;48.508;9.052;2022-12-18T08:21:07;-7.90;10.60
516;DHT22;244;48.508;9.052;2022-12-18T08:23:34;-8.00;10.60
516;DHT22;244;48.508;9.052;2022-12-18T08:26:01;-8.00;10.70
516;DHT22;244;48.508;9.052;2022-12-18T08:28:28;-7.90;11.30
516;DHT22;244;48.508;9.052;2022-12-18T08:30:55;-7.90;10.70
516;DHT22;244;48.508;9.052;2022-12-18T08:33:22;-7.90;10.70
516;DHT22;244;48.508;9.052;2022-12-18T08:35:53;-8.00;10.70
516;DHT22;244;48.508;9.052;2022-12-18T08:38:20;-8.00;10.70
516;DHT22;244;48.508;9.052;2022-12-18T08:40:48;-7.90;10.70
516;DHT22;244;48.508;9.052;2022-12-18T08:43:15;-7.90;10.60
516;DHT22;244;48.508;9.052;2022-12-18T08:45:59;-7.90;10.60
516;DHT22;244;48.508;9.052;2022-12-18T08:48:26;-7.90;10.50
516;DHT22;244;48.508;9.052;2022-12-18T08:50:58;-7.90;11.10
516;DHT22;244;48.508;9.052;2022-12-18T08:53:26;-7.80;10.60
516;DHT22;244;48.508;9.052;2022-12-18T08:55:53;-7.80;10.60
516;DHT22;244;48.508;9.052;2022-12-18T08:58:20;-7.80;10.50
516;DHT22;244;48.508;9.052;2022-12-18T09:00:47;-7.70;10.60
516;DHT22;244;48.508;9.052;2022-12-18T09:03:14;-7.70;10.50
516;DHT22;244;48.508;9.052;2022-12-18T09:05:41;-7.70;10.50
516;DHT22;244;48.508;9.052;2022-12-18T09:08:10;-7.60;10.60
516;DHT22;244;48.508;9.052;2022-12-18T09:10:45;-7.60;10.60
516;DHT22;244;48.508;9.052;2022-12-18T09:13:16;-7.50;10.60
516;DHT22;244;48.508;9.052;2022-12-18T09:15:43;-7.50;10.60
516;DHT22;244;48.508;9.052;2022-12-18T09:18:11;-7.40;10.50
516;DHT22;244;48.508;9.052;2022-12-18T09:20:39;-7.40;10.90
516;DHT22;244;48.508;9.052;2022-12-18T09:23:07;-7.40;10.80
516;DHT22;244;48.508;9.052;2022-12-18T09:25:36;-7.30;10.30
516;DHT22;244;48.508;9.052;2022-12-18T09:28:06;-7.20;10.30
516;DHT22;244;48.508;9.052;2022-12-18T09:30:33;-7.20;10.20
516;DHT22;244;48.508;9.052;2022-12-18T09:33:00;-7.20;10.20
516;DHT22;244;48.508;9.052;2022-12-18T09:35:27;-7.10;10.30
516;DHT22;244;48.508;9.052;2022-12-18T09:37:57;-7.00;10.30
516;DHT22;244;48.508;9.052;2022-12-18T09:40:31;-6.90;10.40
516;DHT22;244;48.508;9.052;2022-12-18T09:43:05;-6.90;10.40
516;DHT22;244;48.508;9.052;2022-12-18T09:45:38;-6.80;10.30
516;DHT22;244;48.508;9.052;2022-12-18T09:48:10;-6.80;10.80
516;DHT22;244;48.508;9.052;2022-12-18T09:50:43;-6.80;10.10
516;DHT22;244;48.508;9.052;2022-12-18T09:53:17;-6.80;10.10
516;DHT22;244;48.508;9.052;2022-12-18T09:55:48;-6.80;10.00
516;DHT22;244;48.508;9.052;2022-12-18T09:58:20;-6.70;10.00
516;DHT22;244;48.508;9.052;2022-12-18T10:00:51;-6.70;10.10
516;DHT22;244;48.508;9.052;2022-12-18T10:03:18;-6.60;10.30
516;DHT22;244;48.508;9.052;2022-12-18T10:05:54;-6.60;10.30
516;DHT22;244;48.508;9.052;2022-12-18T10:08:33;-6.50;10.30
516;DHT22;244;48.508;9.052;2022-12-18T10:11:22;-6.50;10.40
516;DHT22;244;48.508;9.052;2022-12-18T10:13:57;-6.40;10.30
516;DHT22;244;48.508;9.052;2022-12-18T10:16:34;-6.30;10.40
516;DHT22;244;48.508;9.052;2022-12-18T10:19:24;-6.30;10.30
516;DHT22;244;48.508;9.052;2022-12-18T10:22:02;-6.20;10.30
516;DHT22;244;48.508;9.052;2022-12-18T10:24:42;-6.10;10.30
516;DHT22;244;48.508;9.052;2022-12-18T10:27:15;-6.10;10.00
516;DHT22;244;48.508;9.052;2022-12-18T10:29:44;-6.00;10.10
516;DHT22;244;48.508;9.052;2022-12-18T10:32:15;-5.90;10.20
516;DHT22;244;48.508;9.052;2022-12-18T10:34:45;-5.80;10.30
516;DHT22;244;48.508;9.052;2022-12-18T10:37:16;-5.70;10.10
516;DHT22;244;48.508;9.052;2022-12-18T10:39:46;-5.60;10.20
516;DHT22;244;48.508;9.052;2022-12-18T10:42:17;-5.50;10.20
516;DHT22;244;48.508;9.052;2022-12-18T10:45:01;-5.40;10.30
516;DHT22;244;48.508;9.052;2022-12-18T10:47:28;-5.30;10.40
516;DHT22;244;48.508;9.052;2022-12-18T10:49:55;-5.30;10.40
516;DHT22;244;48.508;9.052;2022-12-18T10:52:24;-5.20;10.30
516;DHT22;244;48.508;9.052;2022-12-18T10:54:53;-5.20;10.10
516;DHT22;244;48.508;9.052;2022-12-18T10:57:32;-5.20;10.00
516;DHT22;244;48.508;9.052;2022-12-18T11:00:25;-5.10;10.10
516;DHT22;244;48.508;9.052;2022-12-18T11:02:53;-5.00;10.20
516;DHT22;244;48.508;9.052;2022-12-18T11:05:29;-4.90;10.20
516;DHT22;244;48.508;9.052;2022-12-18T11:07:57;-4.80;10.10
516;DHT22;244;48.508;9.052;2022-12-18T11:10:28;-4.80;10.20
516;DHT22;244;48.508;9.052;2022-12-18T11:13:14;-4.60;10.20
516;DHT22;244;48.508;9.052;2022-12-18T11:15:44;-4.60;10.20
516;DHT22;244;48.508;9.052;2022-12-18T11:18:17;-4.50;10.10
516;DHT22;244;48.508;9.052;2022-12-18T11:20:52;-4.50;10.10
516;DHT22;244;48.508;9.052;2022-12-18T11:23:21;-4.40;10.20
516;DHT22;244;48.508;9.052;2022-12-18T11:25:54;-4.40;10.20
516;DHT22;244;48.508;9.052;2022-12-18T11:28:34;-4.30;10.30
516;DHT22;244;48.508;9.052;2022-12-18T11:31:22;-4.20;10.20
516;DHT22;244;48.508;9.052;2022-12-18T11:33:56;-4.10;10.20
516;DHT22;244;48.508;9.052;2022-12-18T11:36:26;-4.00;10.30
516;DHT22;244;48.508;9.052;2022-12-18T11:38:55;-3.90;10.30
516;DHT22;244;48.508;9.052;2022-12-18T11:41:28;-3.80;10.30
516;DHT22;244;48.508;9.052;2022-12-18T11:44:13;-3.70;10.20
516;DHT22;244;48.508;9.052;2022-12-18T11:46:47;-3.50;10.10
516;DHT22;244;48.508;9.052;2022-12-18T11:49:21;-3.50;10.10
516;DHT22;244;48.508;9.052;2022-12-18T11:51:53;-3.30;10.20
516;DHT22;244;48.508;9.052;2022-12-18T11:54:22;-3.20;10.30
516;DHT22;244;48.508;9.052;2022-12-18T11:56:53;-3.10;10.30
516;DHT22;244;48.508;9.052;2022-12-18T11:59:28;-2.90;10.30
516;DHT22;244;48.508;9.052;2022-12-18T12:02:09;-2.80;10.20
516;DHT22;244;48.508;9.052;2022-12-18T12:04:50;-2.70;10.20
516;DHT22;244;48.508;9.052;2022-12-18T12:07:31;-2.60;10.20
516;DHT22;244;48.508;9.052;2022-12-18T12:10:09;-2.50;10.20
516;DHT22;244;48.508;9.052;2022-12-18T12:12:55;-2.30;10.20
516;DHT22;244;48.508;9.052;2022-12-18T12:15:32;-2.30;10.00
516;DHT22;244;48.508;9.052;2022-12-18T12:18:08;-2.20;10.00
516;DHT22;244;48.508;9.052;2022-12-18T12:20:46;-2.10;9.90
516;DHT22;244;48.508;9.052;2022-12-18T12:23:23;-2.00;9.90
516;DHT22;244;48.508;9.052;2022-12-18T12:25:59;-1.90;9.80
516;DHT22;244;48.508;9.052;2022-12-18T12:28:44;-1.90;9.80
516;DHT22;244;48.508;9.052;2022-12-18T12:31:24;-1.80;9.70
516;DHT22;244;48.508;9.052;2022-12-18T12:34:04;-1.80;9.40
516;DHT22;244;48.508;9.052;2022-12-18T12:36:41;-1.70;9.50
516;DHT22;244;48.508;9.052;2022-12-18T12:39:14;-1.70;9.40
516;DHT22;244;48.508;9.052;2022-12-18T12:41:42;-1.70;9.20
516;DHT22;244;48.508;9.052;2022-12-18T12:44:32;-1.60;9.20
516;DHT22;244;48.508;9.052;2022-12-18T12:47:04;-1.60;9.20
516;DHT22;244;48.508;9.052;2022-12-18T12:49:34;-1.60;9.20
516;DHT22;244;48.508;9.052;2022-12-18T12:52:07;-1.60;9.10
516;DHT22;244;48.508;9.052;2022-12-18T12:54:37;-1.60;9.10
516;DHT22;244;48.508;9.052;2022-12-18T12:57:10;-1.60;9.10
516;DHT22;244;48.508;9.052;2022-12-18T12:59:49;-1.60;9.20
516;DHT22;244;48.508;9.052;2022-12-18T13:02:37;-1.60;9.20
516;DHT22;244;48.508;9.052;2022-12-18T13:05:14;-1.60;9.20
516;DHT22;244;48.508;9.052;2022-12-18T13:07:49;-1.50;9.20
516;DHT22;244;48.508;9.052;2022-12-18T13:10:32;-1.50;9.80
516;DHT22;244;48.508;9.052;2022-12-18T13:13:01;-1.50;9.20
516;DHT22;244;48.508;9.052;2022-12-18T13:15:35;-1.50;9.20
516;DHT22;244;48.508;9.052;2022-12-18T13:18:14;-1.50;9.30
516;DHT22;244;48.508;9.052;2022-12-18T13:20:44;-1.50;9.30
516;DHT22;244;48.508;9.052;2022-12-18T13:23:31;-1.50;9.30
516;DHT22;244;48.508;9.052;2022-12-18T13:26:29;-1.50;9.40
516;DHT22;244;48.508;9.052;2022-12-18T13:29:01;-1.50;9.40
516;DHT22;244;48.508;9.052;2022-12-18T13:34:34;-1.50;9.60
516;DHT22;244;48.508;9.052;2022-12-18T13:43:33;-1.60;9.50
516;DHT22;244;48.508;9.052;2022-12-18T13:46:17;-1.60;9.60
516;DHT22;244;48.508;9.052;2022-12-18T13:48:51;-1.60;9.70
516;DHT22;244;48.508;9.052;2022-12-18T13:51:20;-1.60;9.70
516;DHT22;244;48.508;9.052;2022-12-18T13:53:50;-1.60;9.70
516;DHT22;244;48.508;9.052;2022-12-18T13:56:21;-1.60;9.70
516;DHT22;244;48.508;9.052;2022-12-18T14:01:45;-1.60;9.70
516;DHT22;244;48.508;9.052;2022-12-18T14:04:20;-1.70;9.70
516;DHT22;244;48.508;9.052;2022-12-18T14:06:49;-1.70;9.80
516;DHT22;244;48.508;9.052;2022-12-18T14:09:19;-1.80;9.70
516;DHT22;244;48.508;9.052;2022-12-18T14:11:48;-1.80;9.80
516;DHT22;244;48.508;9.052;2022-12-18T14:14:16;-1.90;9.80
516;DHT22;244;48.508;9.052;2022-12-18T14:16:45;-1.90;9.80
516;DHT22;244;48.508;9.052;2022-12-18T14:19:15;-1.90;10.10
516;DHT22;244;48.508;9.052;2022-12-18T14:21:46;-1.90;9.90
516;DHT22;244;48.508;9.052;2022-12-18T14:24:15;-1.90;10.00
516;DHT22;244;48.508;9.052;2022-12-18T14:26:42;-1.90;10.00
516;DHT22;244;48.508;9.052;2022-12-18T14:29:23;-2.00;10.00
516;DHT22;244;48.508;9.052;2022-12-18T14:32:12;-2.00;10.10
516;DHT22;244;48.508;9.052;2022-12-18T14:34:42;-2.00;10.10
516;DHT22;244;48.508;9.052;2022-12-18T14:37:10;-2.00;10.10
516;DHT22;244;48.508;9.052;2022-12-18T14:39:38;-2.00;10.20
516;DHT22;244;48.508;9.052;2022-12-18T14:42:05;-2.00;10.20
516;DHT22;244;48.508;9.052;2022-12-18T14:44:32;-2.00;10.30
516;DHT22;244;48.508;9.052;2022-12-18T14:46:59;-2.00;10.50
516;DHT22;244;48.508;9.052;2022-12-18T14:49:30;-2.00;10.50
516;DHT22;244;48.508;9.052;2022-12-18T14:51:59;-2.00;10.60
516;DHT22;244;48.508;9.052;2022-12-18T14:54:27;-2.00;10.60
516;DHT22;244;48.508;9.052;2022-12-18T14:56:59;-2.10;10.60
516;DHT22;244;48.508;9.052;2022-12-18T14:59:27;-2.10;10.70
516;DHT22;244;48.508;9.052;2022-12-18T15:02:14;-2.20;10.70
516;DHT22;244;48.508;9.052;2022-12-18T15:04:44;-2.20;10.80
516;DHT22;244;48.508;9.052;2022-12-18T15:07:14;-2.30;10.80
516;DHT22;244;48.508;9.052;2022-12-18T15:09:43;-2.40;11.40
516;DHT22;244;48.508;9.052;2022-12-18T15:12:28;-2.40;10.90
516;DHT22;244;48.508;9.052;2022-12-18T15:14:56;-2.50;10.90
516;DHT22;244;48.508;9.052;2022-12-18T15:17:23;-2.60;10.80
516;DHT22;244;48.508;9.052;2022-12-18T15:19:58;-2.70;10.80
516;DHT22;244;48.508;9.052;2022-12-18T15:22:28;-2.80;10.80
516;DHT22;244;48.508;9.052;2022-12-18T15:24:57;-2.90;10.80
516;DHT22;244;48.508;9.052;2022-12-18T15:27:30;-3.00;10.90
516;DHT22;244;48.508;9.052;2022-12-18T15:30:20;-3.10;11.00
516;DHT22;244;48.508;9.052;2022-12-18T15:32:48;-3.20;11.10
516;DHT22;244;48.508;9.052;2022-12-18T15:35:20;-3.30;11.00
516;DHT22;244;48.508;9.052;2022-12-18T15:37:47;-3.40;11.70
516;DHT22;244;48.508;9.052;2022-12-18T15:40:15;-3.40;11.30
516;DHT22;244;48.508;9.052;2022-12-18T15:42:42;-3.50;11.40
516;DHT22;244;48.508;9.052;2022-12-18T15:45:27;-3.60;11.40
516;DHT22;244;48.508;9.052;2022-12-18T15:47:55;-3.60;11.40
516;DHT22;244;48.508;9.052;2022-12-18T15:50:28;-3.70;11.40
516;DHT22;244;48.508;9.052;2022-12-18T15:52:55;-3.70;12.00
516;DHT22;244;48.508;9.052;2022-12-18T15:55:24;-3.80;11.30
516;DHT22;244;48.508;9.052;2022-12-18T15:58:09;-3.80;11.30
516;DHT22;244;48.508;9.052;2022-12-18T16:00:38;-3.90;11.40
516;DHT22;244;48.508;9.052;2022-12-18T16:03:05;-3.90;12.10
516;DHT22;244;48.508;9.052;2022-12-18T16:05:34;-3.90;11.60
516;DHT22;244;48.508;9.052;2022-12-18T16:08:01;-4.00;11.70
516;DHT22;244;48.508;9.052;2022-12-18T16:10:28;-4.00;11.90
516;DHT22;244;48.508;9.052;2022-12-18T16:12:55;-4.00;12.00
516;DHT22;244;48.508;9.052;2022-12-18T16:15:22;-3.90;12.00
516;DHT22;244;48.508;9.052;2022-12-18T16:17:49;-3.90;12.00
516;DHT22;244;48.508;9.052;2022-12-18T16:20:18;-3.90;11.90
516;DHT22;244;48.508;9.052;2022-12-18T16:22:48;-3.90;11.90
516;DHT22;244;48.508;9.052;2022-12-18T16:25:18;-3.80;12.10
516;DHT22;244;48.508;9.052;2022-12-18T16:27:46;-3.80;12.10
516;DHT22;244;48.508;9.052;2022-12-18T16:30:15;-3.70;12.10
516;DHT22;244;48.508;9.052;2022-12-18T16:32:42;-3.70;12.10
516;DHT22;244;48.508;9.052;2022-12-18T16:35:10;-3.60;12.20
516;DHT22;244;48.508;9.052;2022-12-18T16:37:41;-3.60;12.10
516;DHT22;244;48.508;9.052;2022-12-18T16:40:12;-3.50;12.10
516;DHT22;244;48.508;9.052;2022-12-18T16:42:42;-3.50;12.10
516;DHT22;244;48.508;9.052;2022-12-18T16:45:11;-3.40;12.10
516;DHT22;244;48.508;9.052;2022-12-18T16:47:39;-3.40;12.00
516;DHT22;244;48.508;9.052;2022-12-18T16:50:07;-3.40;12.00
516;DHT22;244;48.508;9.052;2022-12-18T16:52:37;-3.30;12.10
516;DHT22;244;48.508;9.052;2022-12-18T16:55:05;-3.30;12.00
516;DHT22;244;48.508;9.052;2022-12-18T16:57:34;-3.30;11.90
516;DHT22;244;48.508;9.052;2022-12-18T17:00:01;-3.20;11.90
516;DHT22;244;48.508;9.052;2022-12-18T17:02:28;-3.20;11.80
516;DHT22;244;48.508;9.052;2022-12-18T17:04:56;-3.10;11.90
516;DHT22;244;48.508;9.052;2022-12-18T17:07:23;-3.10;11.90
516;DHT22;244;48.508;9.052;2022-12-18T17:09:50;-3.10;11.80
516;DHT22;244;48.508;9.052;2022-12-18T17:12:18;-3.00;11.80
516;DHT22;244;48.508;9.052;2022-12-18T17:14:47;-3.00;11.80
516;DHT22;244;48.508;9.052;2022-12-18T17:17:14;-3.00;11.90